Airfield :
LOGIN :

Register | Disclaimer

   EN    FR    IT 

 










Legend :    VFR   Marginal VFR   IFR   Intensive IFR   Very Intensive IFR
Visi :
Ceiling :
>= 8 km
>= 3000ft
5 to 8 km
1000 to 3000 ft
1500m to 5 km
500 to 1000 ft
800 to 1500m
200 to 500 ft
< 800m
< 200 ft
Symbols :   Thunderstorms  Fog  Heavy snow  Heavy precipitations  Wind > 20 kt
SIGMETs :     Misc.  Thunderstorms  Icing  Turbulence  Mountain Waves  Volcanic Ashes







- Airport Elevation : 464 ft
- IATA code : EVX
- Download approach charts


LFOE - Evreux

CURRENT METAR :
  • 261230Z AUTO 07007KT 030V110 CAVOK 15/06 Q1020

EXPIRED METARs :
  • 261200Z AUTO 09006KT 040V140 CAVOK 14/05 Q1020
  • 261130Z AUTO 08006KT 050V110 CAVOK 14/04 Q1020
  • 261100Z AUTO 07006KT 040V120 CAVOK 13/03 Q1020
  • 261030Z AUTO 07006KT CAVOK 13/03 Q1020
  • 261000Z AUTO 09008KT 060V120 CAVOK 12/02 Q1020

TAF TAF LFOE
Valid from the 26 at 09:00 until the 27 at 09:00 UTC


260800Z 2609/2709 06008KT CAVOK
No reported NOTAMs for that airfield.



MET'MAP, your aeronautical weather chart ! - Copyright ORBIFLY December 2007 - Disclaimer

ORBIFLY MET'MAP TEAM :

Programming & Development : Alexandra Zaïnal
Concept & Development : Baudouin d'Aumeries
Co-Development & Prog : Marc-Olivier Méhu
Technical & hardware support : Manuel Goepfert

Contact : metmap@orbifly.com




SOURCES & CREDITS :

   NOAA